الصفحة الرئيسية
METAR-TAF:

METAR-TAF

مطار :

Japanese Ground Self Defense Force

Tokachi-Obihiro, اليابان

دائرة عرض: 42-54N, خط طول: 143-10E, ارتفاع: 84 متر

مراقبة الطقس الحالي

تاريخ ووقت الإصدار 7ساعات و 41 دقيقة قبل الساعة 22:34UTC
ريح 1 عقدةمن اتجاهات متغيرة
درجة الحرارة 22°درجة مئوية
الرطوبة 83%
ضغط 1019 hPa
الرؤية: 8000 متر
غيوم قليلة على ارتفاع 800 قدم
غيوم متفرقة على ارتفاع 1000 قدم
غيوم مفككة على ارتفاع 1500 قدم
ضباب بالجوار

METAR: RJCT 152234Z VRB01KT 8000 VCFG FEW008 SCT010 BKN015 22/19 Q1019 RMK 1ST008 3ST010 6CU015 A3011

زمن: 15:15 (06:15 UTC)


TAF: مفقودة

أرصاد الطقس والتوقعات من أكثر من 4000 مطار (تقارير الطقس للمطار METAR والتنبؤ بالطقس بالمطارTAF).

المحطات المتاحة هي النقط الصفراء والحمراء على الخريطة.

حرك المؤشر فوق النقطة لمعرفة اسم المحطة.

ثم انقر لمعرفة أرصاد وتوقعات الطقس.

لتغيير الخارطة: اضغط على الأزرار الخضراء مع رمز الصليب الأسود للتكبير. على الزر الأخضر مع شرطة للتصغير، أو على الأسهم الخضراء للخرائط المجاورة.


METAR-TAF: